Main page
METAR-TAF:

METAR-TAF

Airports :

Dakar, Senegal

Léopold Sédar Senghor International Airport

latitude: 14-44N, longitude: 017-30W, elevation: 27 m

Current weather observation

The report was made 25 minutes ago, at 16:00 UTC
Wind 13 kt from the North
Temperature 24°C
Humidity 69%
Pressure 1012 hPa
Visibility 10 km or more
no clouds below 1500 m and no cumulonimbus

METAR: GOOY 251600Z 36013KT CAVOK 24/18 Q1012

Time: 16:25 (16:25 UTC)

Forecast

The report was made 4 hours and 55 minutes ago, at 11:30 UTC
Forecast valid from 25 at 12 UTC to 26 at 18 UTC
Wind 8 kt from the North
Visibility 10 km or more
no clouds below 1500 m and no cumulonimbus

TAF: GOOY 251130Z 2512/2618 36008KT CAVOK

Weather observations and forecasts of more than 4000 airports (METAR and TAF reports).

The available stations are represented by yellow and red dots on the map.

Hover mouse over dot to see the name of the station.

Then click to see weather observations and forecasts.

To change the map : click on the green buttons with a black cross to zoom in, on the green button with a dash to zoom out, or on the green arrows for adjacent maps.


METAR-TAF: